sensor_id;sensor_type;location;lat;lon;timestamp;temperature;humidity
4223;DHT22;2125;51.436;14.138;2022-07-22T00:00:13;17.90;86.20
4223;DHT22;2125;51.436;14.138;2022-07-22T00:02:41;17.80;86.10
4223;DHT22;2125;51.436;14.138;2022-07-22T00:05:08;17.80;86.10
4223;DHT22;2125;51.436;14.138;2022-07-22T00:07:36;17.70;86.10
4223;DHT22;2125;51.436;14.138;2022-07-22T00:10:05;17.70;86.30
4223;DHT22;2125;51.436;14.138;2022-07-22T00:12:32;17.60;86.50
4223;DHT22;2125;51.436;14.138;2022-07-22T00:14:59;17.70;86.60
4223;DHT22;2125;51.436;14.138;2022-07-22T00:17:26;17.80;86.40
4223;DHT22;2125;51.436;14.138;2022-07-22T00:19:53;17.90;86.20
4223;DHT22;2125;51.436;14.138;2022-07-22T00:22:19;17.80;86.10
4223;DHT22;2125;51.436;14.138;2022-07-22T00:24:46;17.80;86.30
4223;DHT22;2125;51.436;14.138;2022-07-22T00:27:15;17.80;86.30
4223;DHT22;2125;51.436;14.138;2022-07-22T00:29:41;17.80;86.30
4223;DHT22;2125;51.436;14.138;2022-07-22T00:32:08;17.80;86.20
4223;DHT22;2125;51.436;14.138;2022-07-22T00:34:35;17.90;86.00
4223;DHT22;2125;51.436;14.138;2022-07-22T00:37:01;17.90;85.60
4223;DHT22;2125;51.436;14.138;2022-07-22T00:39:30;17.80;85.40
4223;DHT22;2125;51.436;14.138;2022-07-22T00:41:57;17.60;85.40
4223;DHT22;2125;51.436;14.138;2022-07-22T00:44:26;17.40;85.20
4223;DHT22;2125;51.436;14.138;2022-07-22T00:46:52;17.30;85.50
4223;DHT22;2125;51.436;14.138;2022-07-22T00:49:19;17.20;85.90
4223;DHT22;2125;51.436;14.138;2022-07-22T00:51:46;17.10;86.20
4223;DHT22;2125;51.436;14.138;2022-07-22T00:54:13;17.10;86.40
4223;DHT22;2125;51.436;14.138;2022-07-22T00:56:40;17.10;86.40
4223;DHT22;2125;51.436;14.138;2022-07-22T00:59:10;17.10;86.60
4223;DHT22;2125;51.436;14.138;2022-07-22T01:01:38;17.10;86.60
4223;DHT22;2125;51.436;14.138;2022-07-22T01:04:05;17.00;86.60
4223;DHT22;2125;51.436;14.138;2022-07-22T01:06:32;17.10;86.60
4223;DHT22;2125;51.436;14.138;2022-07-22T01:08:59;17.10;86.80
4223;DHT22;2125;51.436;14.138;2022-07-22T01:11:26;17.20;86.70
4223;DHT22;2125;51.436;14.138;2022-07-22T01:13:54;17.30;86.80
4223;DHT22;2125;51.436;14.138;2022-07-22T01:16:22;17.30;86.80
4223;DHT22;2125;51.436;14.138;2022-07-22T01:18:50;17.40;86.80
4223;DHT22;2125;51.436;14.138;2022-07-22T01:21:18;17.50;86.70
4223;DHT22;2125;51.436;14.138;2022-07-22T01:23:45;17.60;86.50
4223;DHT22;2125;51.436;14.138;2022-07-22T01:26:12;17.70;86.30
4223;DHT22;2125;51.436;14.138;2022-07-22T01:28:38;17.70;86.30
4223;DHT22;2125;51.436;14.138;2022-07-22T01:31:05;17.80;86.40
4223;DHT22;2125;51.436;14.138;2022-07-22T01:33:32;17.80;86.30
4223;DHT22;2125;51.436;14.138;2022-07-22T01:35:59;17.70;86.10
4223;DHT22;2125;51.436;14.138;2022-07-22T01:38:28;17.70;86.10
4223;DHT22;2125;51.436;14.138;2022-07-22T01:40:55;17.70;86.30
4223;DHT22;2125;51.436;14.138;2022-07-22T01:43:21;17.70;86.30
4223;DHT22;2125;51.436;14.138;2022-07-22T01:45:51;17.70;86.30
4223;DHT22;2125;51.436;14.138;2022-07-22T01:48:18;17.70;86.30
4223;DHT22;2125;51.436;14.138;2022-07-22T01:50:45;17.70;86.10
4223;DHT22;2125;51.436;14.138;2022-07-22T01:53:12;17.60;86.00
4223;DHT22;2125;51.436;14.138;2022-07-22T01:55:40;17.60;86.00
4223;DHT22;2125;51.436;14.138;2022-07-22T01:58:07;17.50;86.00
4223;DHT22;2125;51.436;14.138;2022-07-22T02:00:34;17.50;85.70
4223;DHT22;2125;51.436;14.138;2022-07-22T02:03:02;17.50;85.60
4223;DHT22;2125;51.436;14.138;2022-07-22T02:05:28;17.50;85.80
4223;DHT22;2125;51.436;14.138;2022-07-22T02:07:59;17.40;85.80
4223;DHT22;2125;51.436;14.138;2022-07-22T02:10:27;17.40;86.00
4223;DHT22;2125;51.436;14.138;2022-07-22T02:12:55;17.40;86.00
4223;DHT22;2125;51.436;14.138;2022-07-22T02:15:22;17.30;85.90
4223;DHT22;2125;51.436;14.138;2022-07-22T02:17:49;17.20;86.00
4223;DHT22;2125;51.436;14.138;2022-07-22T02:20:15;17.10;86.00
4223;DHT22;2125;51.436;14.138;2022-07-22T02:22:42;17.10;86.20
4223;DHT22;2125;51.436;14.138;2022-07-22T02:25:09;17.10;86.30
4223;DHT22;2125;51.436;14.138;2022-07-22T02:27:36;17.10;86.40
4223;DHT22;2125;51.436;14.138;2022-07-22T02:30:06;17.20;86.50
4223;DHT22;2125;51.436;14.138;2022-07-22T02:32:33;17.20;86.40
4223;DHT22;2125;51.436;14.138;2022-07-22T02:35:00;17.20;86.40
4223;DHT22;2125;51.436;14.138;2022-07-22T02:37:27;17.30;86.40
4223;DHT22;2125;51.436;14.138;2022-07-22T02:39:53;17.30;86.40
4223;DHT22;2125;51.436;14.138;2022-07-22T02:42:20;17.30;86.40
4223;DHT22;2125;51.436;14.138;2022-07-22T02:44:47;17.30;86.40
4223;DHT22;2125;51.436;14.138;2022-07-22T02:47:16;17.30;86.50
4223;DHT22;2125;51.436;14.138;2022-07-22T02:49:42;17.40;86.60
4223;DHT22;2125;51.436;14.138;2022-07-22T02:52:09;17.40;86.60
4223;DHT22;2125;51.436;14.138;2022-07-22T02:54:36;17.50;86.50
4223;DHT22;2125;51.436;14.138;2022-07-22T02:57:02;17.60;86.10
4223;DHT22;2125;51.436;14.138;2022-07-22T02:59:29;17.60;85.70
4223;DHT22;2125;51.436;14.138;2022-07-22T03:01:56;17.60;85.70
4223;DHT22;2125;51.436;14.138;2022-07-22T03:04:24;17.60;85.80
4223;DHT22;2125;51.436;14.138;2022-07-22T03:06:50;17.70;85.80
4223;DHT22;2125;51.436;14.138;2022-07-22T03:09:17;17.60;85.60
4223;DHT22;2125;51.436;14.138;2022-07-22T03:11:44;17.40;85.10
4223;DHT22;2125;51.436;14.138;2022-07-22T03:14:11;17.10;84.60
4223;DHT22;2125;51.436;14.138;2022-07-22T03:16:37;16.90;85.00
4223;DHT22;2125;51.436;14.138;2022-07-22T03:19:05;16.60;85.30
4223;DHT22;2125;51.436;14.138;2022-07-22T03:21:33;16.50;85.50
4223;DHT22;2125;51.436;14.138;2022-07-22T03:24:00;16.40;85.80
4223;DHT22;2125;51.436;14.138;2022-07-22T03:26:27;16.40;86.20
4223;DHT22;2125;51.436;14.138;2022-07-22T03:28:53;16.40;86.40
4223;DHT22;2125;51.436;14.138;2022-07-22T03:31:20;16.50;86.50
4223;DHT22;2125;51.436;14.138;2022-07-22T03:33:46;16.50;86.60
4223;DHT22;2125;51.436;14.138;2022-07-22T03:36:13;16.60;86.60
4223;DHT22;2125;51.436;14.138;2022-07-22T03:38:41;16.70;86.60
4223;DHT22;2125;51.436;14.138;2022-07-22T03:41:08;16.80;86.60
4223;DHT22;2125;51.436;14.138;2022-07-22T03:43:34;16.80;86.60
4223;DHT22;2125;51.436;14.138;2022-07-22T03:46:01;16.90;86.60
4223;DHT22;2125;51.436;14.138;2022-07-22T03:48:28;16.90;86.50
4223;DHT22;2125;51.436;14.138;2022-07-22T03:50:55;17.00;86.40
4223;DHT22;2125;51.436;14.138;2022-07-22T03:53:22;17.00;86.30
4223;DHT22;2125;51.436;14.138;2022-07-22T03:55:50;17.00;86.10
4223;DHT22;2125;51.436;14.138;2022-07-22T03:58:19;17.10;86.20
4223;DHT22;2125;51.436;14.138;2022-07-22T04:00:45;17.20;86.20
4223;DHT22;2125;51.436;14.138;2022-07-22T04:03:12;17.30;86.20
4223;DHT22;2125;51.436;14.138;2022-07-22T04:05:39;17.40;86.20
4223;DHT22;2125;51.436;14.138;2022-07-22T04:08:05;17.70;86.30
4223;DHT22;2125;51.436;14.138;2022-07-22T04:10:32;18.20;85.90
4223;DHT22;2125;51.436;14.138;2022-07-22T04:13:00;18.60;85.00
4223;DHT22;2125;51.436;14.138;2022-07-22T04:15:26;19.00;84.20
4223;DHT22;2125;51.436;14.138;2022-07-22T04:17:53;19.20;83.90
4223;DHT22;2125;51.436;14.138;2022-07-22T04:20:20;19.40;83.50
4223;DHT22;2125;51.436;14.138;2022-07-22T04:22:47;19.50;82.90
4223;DHT22;2125;51.436;14.138;2022-07-22T04:25:13;19.40;82.80
4223;DHT22;2125;51.436;14.138;2022-07-22T04:27:40;19.40;83.40
4223;DHT22;2125;51.436;14.138;2022-07-22T04:30:09;19.60;83.40
4223;DHT22;2125;51.436;14.138;2022-07-22T04:32:36;19.90;83.20
4223;DHT22;2125;51.436;14.138;2022-07-22T04:35:03;20.20;83.00
4223;DHT22;2125;51.436;14.138;2022-07-22T04:37:30;20.50;82.30
4223;DHT22;2125;51.436;14.138;2022-07-22T04:39:57;20.70;81.40
4223;DHT22;2125;51.436;14.138;2022-07-22T04:42:24;20.80;81.10
4223;DHT22;2125;51.436;14.138;2022-07-22T04:44:50;20.80;80.70
4223;DHT22;2125;51.436;14.138;2022-07-22T04:47:18;20.80;81.00
4223;DHT22;2125;51.436;14.138;2022-07-22T04:49:53;20.90;81.10
4223;DHT22;2125;51.436;14.138;2022-07-22T04:52:19;20.80;81.40
4223;DHT22;2125;51.436;14.138;2022-07-22T04:54:46;20.50;81.90
4223;DHT22;2125;51.436;14.138;2022-07-22T04:57:13;20.40;82.60
4223;DHT22;2125;51.436;14.138;2022-07-22T04:59:39;20.40;83.10
4223;DHT22;2125;51.436;14.138;2022-07-22T05:02:06;20.40;83.10
4223;DHT22;2125;51.436;14.138;2022-07-22T05:04:34;20.30;83.20
4223;DHT22;2125;51.436;14.138;2022-07-22T05:07:01;20.40;82.90
4223;DHT22;2125;51.436;14.138;2022-07-22T05:09:28;20.60;83.10
4223;DHT22;2125;51.436;14.138;2022-07-22T05:11:55;21.10;82.00
4223;DHT22;2125;51.436;14.138;2022-07-22T05:14:22;21.70;80.60
4223;DHT22;2125;51.436;14.138;2022-07-22T05:16:48;22.30;79.00
4223;DHT22;2125;51.436;14.138;2022-07-22T05:19:15;22.90;76.90
4223;DHT22;2125;51.436;14.138;2022-07-22T05:21:43;23.50;75.60
4223;DHT22;2125;51.436;14.138;2022-07-22T05:24:09;24.00;74.60
4223;DHT22;2125;51.436;14.138;2022-07-22T05:26:36;24.30;73.40
4223;DHT22;2125;51.436;14.138;2022-07-22T05:29:03;24.30;73.80
4223;DHT22;2125;51.436;14.138;2022-07-22T05:31:30;24.20;72.70
4223;DHT22;2125;51.436;14.138;2022-07-22T05:33:57;24.20;73.40
4223;DHT22;2125;51.436;14.138;2022-07-22T05:36:23;24.20;73.10
4223;DHT22;2125;51.436;14.138;2022-07-22T05:38:51;24.30;73.50
4223;DHT22;2125;51.436;14.138;2022-07-22T05:41:24;24.20;72.80
4223;DHT22;2125;51.436;14.138;2022-07-22T05:43:50;24.50;73.00
4223;DHT22;2125;51.436;14.138;2022-07-22T05:46:17;24.80;71.20
4223;DHT22;2125;51.436;14.138;2022-07-22T05:48:44;24.90;71.40
4223;DHT22;2125;51.436;14.138;2022-07-22T05:51:11;24.80;71.00
4223;DHT22;2125;51.436;14.138;2022-07-22T05:53:40;24.60;71.90
4223;DHT22;2125;51.436;14.138;2022-07-22T05:56:08;24.40;71.70
4223;DHT22;2125;51.436;14.138;2022-07-22T05:58:36;24.60;73.30
4223;DHT22;2125;51.436;14.138;2022-07-22T06:01:03;24.80;70.10
4223;DHT22;2125;51.436;14.138;2022-07-22T06:03:30;25.00;70.30
4223;DHT22;2125;51.436;14.138;2022-07-22T06:05:56;25.20;69.70
4223;DHT22;2125;51.436;14.138;2022-07-22T06:08:23;25.40;69.50
4223;DHT22;2125;51.436;14.138;2022-07-22T06:10:49;25.70;68.40
4223;DHT22;2125;51.436;14.138;2022-07-22T06:13:17;25.90;67.80
4223;DHT22;2125;51.436;14.138;2022-07-22T06:15:44;26.10;66.80
4223;DHT22;2125;51.436;14.138;2022-07-22T06:18:11;26.30;66.50
4223;DHT22;2125;51.436;14.138;2022-07-22T06:20:37;26.40;67.10
4223;DHT22;2125;51.436;14.138;2022-07-22T06:23:04;26.60;65.80
4223;DHT22;2125;51.436;14.138;2022-07-22T06:25:31;26.50;66.10
4223;DHT22;2125;51.436;14.138;2022-07-22T06:27:57;26.40;66.20
4223;DHT22;2125;51.436;14.138;2022-07-22T06:30:25;26.50;66.00
4223;DHT22;2125;51.436;14.138;2022-07-22T06:32:53;26.20;66.10
4223;DHT22;2125;51.436;14.138;2022-07-22T06:35:19;26.30;66.60
4223;DHT22;2125;51.436;14.138;2022-07-22T06:37:46;26.10;67.10
4223;DHT22;2125;51.436;14.138;2022-07-22T06:40:13;26.00;65.50
4223;DHT22;2125;51.436;14.138;2022-07-22T06:42:39;26.10;65.30
4223;DHT22;2125;51.436;14.138;2022-07-22T06:45:07;26.10;66.20
4223;DHT22;2125;51.436;14.138;2022-07-22T06:47:35;25.90;66.70
4223;DHT22;2125;51.436;14.138;2022-07-22T06:50:02;25.70;67.00
4223;DHT22;2125;51.436;14.138;2022-07-22T06:52:29;25.30;68.00
4223;DHT22;2125;51.436;14.138;2022-07-22T06:54:55;25.00;69.80
4223;DHT22;2125;51.436;14.138;2022-07-22T06:57:22;24.90;69.20
4223;DHT22;2125;51.436;14.138;2022-07-22T06:59:49;25.00;69.70
4223;DHT22;2125;51.436;14.138;2022-07-22T07:02:16;24.80;68.60
4223;DHT22;2125;51.436;14.138;2022-07-22T07:04:47;25.00;70.30
4223;DHT22;2125;51.436;14.138;2022-07-22T07:07:13;25.30;69.30
4223;DHT22;2125;51.436;14.138;2022-07-22T07:09:41;25.10;69.00
4223;DHT22;2125;51.436;14.138;2022-07-22T07:12:08;24.70;70.40
4223;DHT22;2125;51.436;14.138;2022-07-22T07:14:35;24.70;71.50
4223;DHT22;2125;51.436;14.138;2022-07-22T07:17:01;24.60;70.80
4223;DHT22;2125;51.436;14.138;2022-07-22T07:19:28;24.70;71.20
4223;DHT22;2125;51.436;14.138;2022-07-22T07:21:56;24.90;70.90
4223;DHT22;2125;51.436;14.138;2022-07-22T07:24:23;25.00;70.50
4223;DHT22;2125;51.436;14.138;2022-07-22T07:26:49;25.00;70.10
4223;DHT22;2125;51.436;14.138;2022-07-22T07:29:16;24.70;70.60
4223;DHT22;2125;51.436;14.138;2022-07-22T07:31:42;24.70;71.30
4223;DHT22;2125;51.436;14.138;2022-07-22T07:34:10;24.70;70.60
4223;DHT22;2125;51.436;14.138;2022-07-22T07:36:36;24.80;70.90
4223;DHT22;2125;51.436;14.138;2022-07-22T07:39:05;24.90;69.40
4223;DHT22;2125;51.436;14.138;2022-07-22T07:41:33;25.00;69.70
4223;DHT22;2125;51.436;14.138;2022-07-22T07:44:01;24.90;69.70
4223;DHT22;2125;51.436;14.138;2022-07-22T07:46:29;24.90;69.00
4223;DHT22;2125;51.436;14.138;2022-07-22T07:48:56;24.80;70.30
4223;DHT22;2125;51.436;14.138;2022-07-22T07:51:22;24.80;70.50
4223;DHT22;2125;51.436;14.138;2022-07-22T07:53:49;24.70;70.60
4223;DHT22;2125;51.436;14.138;2022-07-22T07:56:17;24.80;69.90
4223;DHT22;2125;51.436;14.138;2022-07-22T07:58:44;24.90;68.10
4223;DHT22;2125;51.436;14.138;2022-07-22T08:01:10;25.20;67.60
4223;DHT22;2125;51.436;14.138;2022-07-22T08:03:37;25.20;67.40
4223;DHT22;2125;51.436;14.138;2022-07-22T08:06:04;25.30;69.20
4223;DHT22;2125;51.436;14.138;2022-07-22T08:08:30;25.50;69.00
4223;DHT22;2125;51.436;14.138;2022-07-22T08:10:57;25.70;68.30
4223;DHT22;2125;51.436;14.138;2022-07-22T08:13:25;25.70;66.50
4223;DHT22;2125;51.436;14.138;2022-07-22T08:15:51;25.50;67.80
4223;DHT22;2125;51.436;14.138;2022-07-22T08:18:18;25.40;68.50
4223;DHT22;2125;51.436;14.138;2022-07-22T08:20:45;25.40;67.30
4223;DHT22;2125;51.436;14.138;2022-07-22T08:23:14;25.50;68.10
4223;DHT22;2125;51.436;14.138;2022-07-22T08:25:40;25.50;65.10
4223;DHT22;2125;51.436;14.138;2022-07-22T08:28:11;25.50;66.50
4223;DHT22;2125;51.436;14.138;2022-07-22T08:30:39;25.60;66.30
4223;DHT22;2125;51.436;14.138;2022-07-22T08:33:08;25.70;67.00
4223;DHT22;2125;51.436;14.138;2022-07-22T08:35:35;26.00;66.60
4223;DHT22;2125;51.436;14.138;2022-07-22T08:38:02;26.10;65.00
4223;DHT22;2125;51.436;14.138;2022-07-22T08:40:28;26.20;65.30
4223;DHT22;2125;51.436;14.138;2022-07-22T08:42:55;26.00;65.30
4223;DHT22;2125;51.436;14.138;2022-07-22T08:45:21;26.00;65.50
4223;DHT22;2125;51.436;14.138;2022-07-22T08:47:51;26.10;65.60
4223;DHT22;2125;51.436;14.138;2022-07-22T08:50:18;26.20;65.50
4223;DHT22;2125;51.436;14.138;2022-07-22T08:52:45;26.10;64.60
4223;DHT22;2125;51.436;14.138;2022-07-22T08:55:12;26.20;65.10
4223;DHT22;2125;51.436;14.138;2022-07-22T08:57:44;26.20;63.70
4223;DHT22;2125;51.436;14.138;2022-07-22T09:00:14;26.40;64.90
4223;DHT22;2125;51.436;14.138;2022-07-22T09:02:42;26.70;63.60
4223;DHT22;2125;51.436;14.138;2022-07-22T09:05:12;26.90;63.90
4223;DHT22;2125;51.436;14.138;2022-07-22T09:07:41;26.80;63.30
4223;DHT22;2125;51.436;14.138;2022-07-22T09:10:10;26.80;63.20
4223;DHT22;2125;51.436;14.138;2022-07-22T09:12:51;26.70;63.60
4223;DHT22;2125;51.436;14.138;2022-07-22T09:15:28;26.40;64.40
4223;DHT22;2125;51.436;14.138;2022-07-22T09:17:56;26.20;64.10
4223;DHT22;2125;51.436;14.138;2022-07-22T09:20:24;26.10;64.90
4223;DHT22;2125;51.436;14.138;2022-07-22T09:22:51;26.00;64.50
4223;DHT22;2125;51.436;14.138;2022-07-22T09:25:24;26.10;67.00
4223;DHT22;2125;51.436;14.138;2022-07-22T09:27:54;26.30;64.00
4223;DHT22;2125;51.436;14.138;2022-07-22T09:30:22;26.50;66.10
4223;DHT22;2125;51.436;14.138;2022-07-22T09:32:50;26.60;64.90
4223;DHT22;2125;51.436;14.138;2022-07-22T09:35:18;27.00;64.50
4223;DHT22;2125;51.436;14.138;2022-07-22T09:37:55;27.50;62.30
4223;DHT22;2125;51.436;14.138;2022-07-22T09:40:24;27.90;60.50
4223;DHT22;2125;51.436;14.138;2022-07-22T09:42:54;28.00;59.40
4223;DHT22;2125;51.436;14.138;2022-07-22T09:45:23;27.80;59.90
4223;DHT22;2125;51.436;14.138;2022-07-22T09:47:50;27.70;58.80
4223;DHT22;2125;51.436;14.138;2022-07-22T09:50:20;27.50;59.10
4223;DHT22;2125;51.436;14.138;2022-07-22T09:52:48;27.40;60.30
4223;DHT22;2125;51.436;14.138;2022-07-22T09:55:18;27.30;60.40
4223;DHT22;2125;51.436;14.138;2022-07-22T09:57:45;27.30;60.10
4223;DHT22;2125;51.436;14.138;2022-07-22T10:00:13;27.10;61.00
4223;DHT22;2125;51.436;14.138;2022-07-22T10:02:43;27.00;60.90
4223;DHT22;2125;51.436;14.138;2022-07-22T10:05:12;26.90;61.20
4223;DHT22;2125;51.436;14.138;2022-07-22T10:07:41;27.20;60.30
4223;DHT22;2125;51.436;14.138;2022-07-22T10:10:09;27.50;61.00
4223;DHT22;2125;51.436;14.138;2022-07-22T10:12:38;27.20;60.00
4223;DHT22;2125;51.436;14.138;2022-07-22T10:15:06;27.00;60.70
4223;DHT22;2125;51.436;14.138;2022-07-22T10:17:35;26.60;60.30
4223;DHT22;2125;51.436;14.138;2022-07-22T10:20:06;26.20;61.40
4223;DHT22;2125;51.436;14.138;2022-07-22T10:22:49;25.90;61.40
4223;DHT22;2125;51.436;14.138;2022-07-22T10:25:17;25.70;62.10
4223;DHT22;2125;51.436;14.138;2022-07-22T10:27:47;25.50;63.00
4223;DHT22;2125;51.436;14.138;2022-07-22T10:30:16;25.10;64.10
4223;DHT22;2125;51.436;14.138;2022-07-22T10:33:03;25.20;64.70
4223;DHT22;2125;51.436;14.138;2022-07-22T10:35:37;25.30;65.20
4223;DHT22;2125;51.436;14.138;2022-07-22T10:38:08;25.40;64.50
4223;DHT22;2125;51.436;14.138;2022-07-22T10:40:50;25.30;64.80
4223;DHT22;2125;51.436;14.138;2022-07-22T10:43:21;25.40;64.60
4223;DHT22;2125;51.436;14.138;2022-07-22T10:45:51;25.60;63.80
4223;DHT22;2125;51.436;14.138;2022-07-22T10:48:45;25.90;63.80
4223;DHT22;2125;51.436;14.138;2022-07-22T10:52:02;26.40;62.40
4223;DHT22;2125;51.436;14.138;2022-07-22T11:00:21;27.50;59.80
4223;DHT22;2125;51.436;14.138;2022-07-22T11:02:50;27.50;60.20
4223;DHT22;2125;51.436;14.138;2022-07-22T11:05:45;27.50;59.50
4223;DHT22;2125;51.436;14.138;2022-07-22T11:08:11;27.70;60.50
4223;DHT22;2125;51.436;14.138;2022-07-22T11:10:46;27.60;61.00
4223;DHT22;2125;51.436;14.138;2022-07-22T11:13:32;27.60;60.30
4223;DHT22;2125;51.436;14.138;2022-07-22T11:16:21;27.50;58.80
4223;DHT22;2125;51.436;14.138;2022-07-22T11:19:12;27.50;59.80
4223;DHT22;2125;51.436;14.138;2022-07-22T11:21:39;27.20;59.60
4223;DHT22;2125;51.436;14.138;2022-07-22T11:24:07;26.90;61.00
4223;DHT22;2125;51.436;14.138;2022-07-22T11:26:40;26.90;62.70
4223;DHT22;2125;51.436;14.138;2022-07-22T11:29:08;27.00;60.40
4223;DHT22;2125;51.436;14.138;2022-07-22T11:31:49;27.10;59.30
4223;DHT22;2125;51.436;14.138;2022-07-22T11:34:24;27.40;60.60
4223;DHT22;2125;51.436;14.138;2022-07-22T11:36:59;27.60;59.20
4223;DHT22;2125;51.436;14.138;2022-07-22T11:39:32;28.10;57.60
4223;DHT22;2125;51.436;14.138;2022-07-22T11:42:08;28.40;55.60
4223;DHT22;2125;51.436;14.138;2022-07-22T11:44:37;28.40;56.40
4223;DHT22;2125;51.436;14.138;2022-07-22T11:47:06;28.30;55.20
4223;DHT22;2125;51.436;14.138;2022-07-22T11:49:44;28.00;54.90
4223;DHT22;2125;51.436;14.138;2022-07-22T11:52:22;27.70;55.50
4223;DHT22;2125;51.436;14.138;2022-07-22T11:54:55;27.50;58.40
4223;DHT22;2125;51.436;14.138;2022-07-22T11:57:46;27.50;57.80
4223;DHT22;2125;51.436;14.138;2022-07-22T12:00:16;27.40;58.20
4223;DHT22;2125;51.436;14.138;2022-07-22T12:03:01;27.50;57.20
4223;DHT22;2125;51.436;14.138;2022-07-22T12:05:28;27.60;57.40
4223;DHT22;2125;51.436;14.138;2022-07-22T12:07:57;27.70;58.20
4223;DHT22;2125;51.436;14.138;2022-07-22T12:10:32;27.70;58.30
4223;DHT22;2125;51.436;14.138;2022-07-22T12:13:03;27.80;58.00
4223;DHT22;2125;51.436;14.138;2022-07-22T12:15:31;27.70;57.50
4223;DHT22;2125;51.436;14.138;2022-07-22T12:18:21;27.60;57.60
4223;DHT22;2125;51.436;14.138;2022-07-22T12:20:50;27.40;57.10
4223;DHT22;2125;51.436;14.138;2022-07-22T12:23:18;27.40;57.30
4223;DHT22;2125;51.436;14.138;2022-07-22T12:26:03;27.40;57.20
4223;DHT22;2125;51.436;14.138;2022-07-22T12:28:34;27.40;58.10
4223;DHT22;2125;51.436;14.138;2022-07-22T12:31:08;27.50;57.10
4223;DHT22;2125;51.436;14.138;2022-07-22T12:33:46;27.60;56.90
4223;DHT22;2125;51.436;14.138;2022-07-22T12:36:19;28.00;55.50
4223;DHT22;2125;51.436;14.138;2022-07-22T12:41:52;28.40;56.30
4223;DHT22;2125;51.436;14.138;2022-07-22T12:44:22;28.40;56.10
4223;DHT22;2125;51.436;14.138;2022-07-22T12:47:01;28.50;55.90
4223;DHT22;2125;51.436;14.138;2022-07-22T12:49:30;28.40;53.50
4223;DHT22;2125;51.436;14.138;2022-07-22T12:52:08;28.30;54.10
4223;DHT22;2125;51.436;14.138;2022-07-22T12:54:36;28.10;54.10
4223;DHT22;2125;51.436;14.138;2022-07-22T12:57:03;28.20;54.10
4223;DHT22;2125;51.436;14.138;2022-07-22T12:59:30;28.20;54.90
4223;DHT22;2125;51.436;14.138;2022-07-22T13:01:57;28.10;55.10
4223;DHT22;2125;51.436;14.138;2022-07-22T13:04:24;28.10;56.20
4223;DHT22;2125;51.436;14.138;2022-07-22T13:06:56;28.20;55.90
4223;DHT22;2125;51.436;14.138;2022-07-22T13:09:23;28.20;56.30
4223;DHT22;2125;51.436;14.138;2022-07-22T13:11:52;28.40;53.80
4223;DHT22;2125;51.436;14.138;2022-07-22T13:14:19;28.60;54.20
4223;DHT22;2125;51.436;14.138;2022-07-22T13:16:51;28.50;54.40
4223;DHT22;2125;51.436;14.138;2022-07-22T13:19:17;28.60;54.30
4223;DHT22;2125;51.436;14.138;2022-07-22T13:21:44;28.70;53.30
4223;DHT22;2125;51.436;14.138;2022-07-22T13:27:32;28.80;52.70
4223;DHT22;2125;51.436;14.138;2022-07-22T13:29:59;28.80;53.80
4223;DHT22;2125;51.436;14.138;2022-07-22T13:32:25;28.80;53.80
4223;DHT22;2125;51.436;14.138;2022-07-22T13:34:52;28.90;54.70
4223;DHT22;2125;51.436;14.138;2022-07-22T13:37:20;29.20;54.40
4223;DHT22;2125;51.436;14.138;2022-07-22T13:39:46;29.50;52.50
4223;DHT22;2125;51.436;14.138;2022-07-22T13:42:14;29.80;51.10
4223;DHT22;2125;51.436;14.138;2022-07-22T13:44:44;29.70;50.90
4223;DHT22;2125;51.436;14.138;2022-07-22T13:47:10;29.50;53.00
4223;DHT22;2125;51.436;14.138;2022-07-22T13:49:39;29.50;52.00
4223;DHT22;2125;51.436;14.138;2022-07-22T13:52:07;29.50;51.50
4223;DHT22;2125;51.436;14.138;2022-07-22T13:54:34;29.50;51.70
4223;DHT22;2125;51.436;14.138;2022-07-22T13:57:00;29.40;52.20
4223;DHT22;2125;51.436;14.138;2022-07-22T13:59:27;29.60;52.00
4223;DHT22;2125;51.436;14.138;2022-07-22T14:01:57;29.80;51.00
4223;DHT22;2125;51.436;14.138;2022-07-22T14:04:23;30.00;53.00
4223;DHT22;2125;51.436;14.138;2022-07-22T14:06:50;30.00;51.30
4223;DHT22;2125;51.436;14.138;2022-07-22T14:09:17;29.80;50.00
4223;DHT22;2125;51.436;14.138;2022-07-22T14:11:44;29.60;50.30
4223;DHT22;2125;51.436;14.138;2022-07-22T14:14:11;29.70;49.90
4223;DHT22;2125;51.436;14.138;2022-07-22T14:16:39;29.50;50.70
4223;DHT22;2125;51.436;14.138;2022-07-22T14:19:08;29.30;50.20
4223;DHT22;2125;51.436;14.138;2022-07-22T14:21:36;29.20;51.20
4223;DHT22;2125;51.436;14.138;2022-07-22T14:24:05;29.00;51.30
4223;DHT22;2125;51.436;14.138;2022-07-22T14:26:32;28.70;51.50
4223;DHT22;2125;51.436;14.138;2022-07-22T14:28:59;28.70;52.50
4223;DHT22;2125;51.436;14.138;2022-07-22T14:31:32;28.80;52.60
4223;DHT22;2125;51.436;14.138;2022-07-22T14:33:59;28.80;52.70
4223;DHT22;2125;51.436;14.138;2022-07-22T14:36:27;28.80;52.10
4223;DHT22;2125;51.436;14.138;2022-07-22T14:38:54;29.00;53.20
4223;DHT22;2125;51.436;14.138;2022-07-22T14:41:26;29.20;51.80
4223;DHT22;2125;51.436;14.138;2022-07-22T14:43:53;29.40;50.80
4223;DHT22;2125;51.436;14.138;2022-07-22T14:46:19;29.30;49.90
4223;DHT22;2125;51.436;14.138;2022-07-22T14:49:05;29.30;51.70
4223;DHT22;2125;51.436;14.138;2022-07-22T14:51:34;29.50;52.40
4223;DHT22;2125;51.436;14.138;2022-07-22T14:54:00;29.80;51.80
4223;DHT22;2125;51.436;14.138;2022-07-22T14:56:33;30.00;49.50
4223;DHT22;2125;51.436;14.138;2022-07-22T14:59:00;29.90;50.40
4223;DHT22;2125;51.436;14.138;2022-07-22T15:01:27;29.90;49.70
4223;DHT22;2125;51.436;14.138;2022-07-22T15:03:54;29.90;51.10
4223;DHT22;2125;51.436;14.138;2022-07-22T15:06:21;30.00;49.60
4223;DHT22;2125;51.436;14.138;2022-07-22T15:08:49;30.10;49.10
4223;DHT22;2125;51.436;14.138;2022-07-22T15:11:16;30.10;49.70
4223;DHT22;2125;51.436;14.138;2022-07-22T15:13:42;29.90;48.80
4223;DHT22;2125;51.436;14.138;2022-07-22T15:16:09;29.90;49.90
4223;DHT22;2125;51.436;14.138;2022-07-22T15:18:38;29.90;50.20
4223;DHT22;2125;51.436;14.138;2022-07-22T15:21:05;29.90;49.00
4223;DHT22;2125;51.436;14.138;2022-07-22T15:23:32;29.90;48.80
4223;DHT22;2125;51.436;14.138;2022-07-22T15:26:00;30.00;51.00
4223;DHT22;2125;51.436;14.138;2022-07-22T15:28:36;30.10;48.90
4223;DHT22;2125;51.436;14.138;2022-07-22T15:31:03;30.10;48.50
4223;DHT22;2125;51.436;14.138;2022-07-22T15:33:31;30.20;48.40
4223;DHT22;2125;51.436;14.138;2022-07-22T15:35:58;30.20;48.10
4223;DHT22;2125;51.436;14.138;2022-07-22T15:38:24;30.30;47.90
4223;DHT22;2125;51.436;14.138;2022-07-22T15:40:51;30.30;47.90
4223;DHT22;2125;51.436;14.138;2022-07-22T15:43:19;30.60;47.40
4223;DHT22;2125;51.436;14.138;2022-07-22T15:45:45;31.10;47.60
4223;DHT22;2125;51.436;14.138;2022-07-22T15:48:12;31.40;47.70
4223;DHT22;2125;51.436;14.138;2022-07-22T15:50:39;31.70;47.20
4223;DHT22;2125;51.436;14.138;2022-07-22T15:53:05;31.80;45.40
4223;DHT22;2125;51.436;14.138;2022-07-22T15:55:32;31.70;45.70
4223;DHT22;2125;51.436;14.138;2022-07-22T15:58:02;31.50;45.80
4223;DHT22;2125;51.436;14.138;2022-07-22T16:00:47;31.10;46.60
4223;DHT22;2125;51.436;14.138;2022-07-22T16:03:14;30.60;47.70
4223;DHT22;2125;51.436;14.138;2022-07-22T16:05:40;30.70;48.50